sensor_id;sensor_type;location;lat;lon;timestamp;pressure;altitude;pressure_sealevel;temperature;humidity
13869;BME280;7004;48.206;16.402;2023-06-19T00:00:22;99550.78;;;18.49;80.20
13869;BME280;7004;48.206;16.402;2023-06-19T00:02:48;99550.66;;;18.23;81.21
13869;BME280;7004;48.206;16.402;2023-06-19T00:05:14;99552.09;;;18.45;80.95
13869;BME280;7004;48.206;16.402;2023-06-19T00:07:40;99550.31;;;18.36;81.30
13869;BME280;7004;48.206;16.402;2023-06-19T00:10:07;99546.66;;;18.55;80.32
13869;BME280;7004;48.206;16.402;2023-06-19T00:12:33;99548.66;;;18.71;79.15
13869;BME280;7004;48.206;16.402;2023-06-19T00:14:59;99543.16;;;18.90;78.66
13869;BME280;7004;48.206;16.402;2023-06-19T00:17:26;99548.09;;;18.67;79.92
13869;BME280;7004;48.206;16.402;2023-06-19T00:19:53;99546.28;;;18.68;79.93
13869;BME280;7004;48.206;16.402;2023-06-19T00:22:19;99541.13;;;18.39;81.99
13869;BME280;7004;48.206;16.402;2023-06-19T00:24:46;99542.97;;;18.56;81.10
13869;BME280;7004;48.206;16.402;2023-06-19T00:27:12;99542.97;;;18.38;82.09
13869;BME280;7004;48.206;16.402;2023-06-19T00:29:38;99544.28;;;18.34;82.07
13869;BME280;7004;48.206;16.402;2023-06-19T00:32:05;99551.03;;;18.10;83.47
13869;BME280;7004;48.206;16.402;2023-06-19T00:34:31;99549.13;;;18.21;83.68
13869;BME280;7004;48.206;16.402;2023-06-19T00:36:58;99545.56;;;18.30;83.02
13869;BME280;7004;48.206;16.402;2023-06-19T00:39:25;99546.34;;;18.40;82.46
13869;BME280;7004;48.206;16.402;2023-06-19T00:41:53;99548.28;;;18.66;81.40
13869;BME280;7004;48.206;16.402;2023-06-19T00:44:19;99547.97;;;18.69;81.55
13869;BME280;7004;48.206;16.402;2023-06-19T00:46:45;99553.75;;;18.64;81.78
13869;BME280;7004;48.206;16.402;2023-06-19T00:49:13;99556.47;;;18.82;81.33
13869;BME280;7004;48.206;16.402;2023-06-19T00:51:40;99554.69;;;18.91;81.12
13869;BME280;7004;48.206;16.402;2023-06-19T00:54:06;99550.34;;;18.90;81.77
13869;BME280;7004;48.206;16.402;2023-06-19T00:56:32;99548.09;;;18.67;83.12
13869;BME280;7004;48.206;16.402;2023-06-19T00:59:01;99547.66;;;18.54;84.64
13869;BME280;7004;48.206;16.402;2023-06-19T01:01:32;99549.72;;;18.42;85.41
13869;BME280;7004;48.206;16.402;2023-06-19T01:03:58;99549.16;;;18.39;86.33
13869;BME280;7004;48.206;16.402;2023-06-19T01:06:31;99550.09;;;18.47;86.33
13869;BME280;7004;48.206;16.402;2023-06-19T01:09:14;99548.19;;;18.40;86.36
13869;BME280;7004;48.206;16.402;2023-06-19T01:11:48;99549.31;;;18.19;87.93
13869;BME280;7004;48.206;16.402;2023-06-19T01:14:26;99552.44;;;18.15;88.66
13869;BME280;7004;48.206;16.402;2023-06-19T01:16:52;99547.81;;;18.34;87.51
13869;BME280;7004;48.206;16.402;2023-06-19T01:19:21;99548.00;;;18.23;88.43
13869;BME280;7004;48.206;16.402;2023-06-19T01:21:48;99552.50;;;18.23;88.43
13869;BME280;7004;48.206;16.402;2023-06-19T01:24:16;99550.16;;;18.38;87.86
13869;BME280;7004;48.206;16.402;2023-06-19T01:26:42;99544.50;;;18.41;87.61
13869;BME280;7004;48.206;16.402;2023-06-19T01:29:14;99548.63;;;18.35;87.36
13869;BME280;7004;48.206;16.402;2023-06-19T01:32:04;99548.97;;;18.04;89.28
13869;BME280;7004;48.206;16.402;2023-06-19T01:34:33;99545.75;;;18.01;90.21
13869;BME280;7004;48.206;16.402;2023-06-19T01:37:01;99547.38;;;17.74;91.81
13869;BME280;7004;48.206;16.402;2023-06-19T01:39:28;99538.09;;;17.78;91.98
13869;BME280;7004;48.206;16.402;2023-06-19T01:41:55;99539.66;;;17.81;92.64
13869;BME280;7004;48.206;16.402;2023-06-19T01:44:22;99539.06;;;17.87;92.14
13869;BME280;7004;48.206;16.402;2023-06-19T01:46:49;99541.59;;;17.88;92.14
13869;BME280;7004;48.206;16.402;2023-06-19T01:49:16;99540.72;;;17.51;93.84
13869;BME280;7004;48.206;16.402;2023-06-19T01:51:43;99532.44;;;17.54;95.23
13869;BME280;7004;48.206;16.402;2023-06-19T01:54:09;99540.47;;;17.54;94.39
13869;BME280;7004;48.206;16.402;2023-06-19T01:56:36;99533.34;;;18.00;92.48
13869;BME280;7004;48.206;16.402;2023-06-19T01:59:02;99534.81;;;17.94;92.33
13869;BME280;7004;48.206;16.402;2023-06-19T02:01:29;99534.00;;;17.84;92.13
13869;BME280;7004;48.206;16.402;2023-06-19T02:03:56;99536.69;;;17.74;92.39
13869;BME280;7004;48.206;16.402;2023-06-19T02:06:22;99541.84;;;17.48;94.10
13869;BME280;7004;48.206;16.402;2023-06-19T02:08:48;99545.53;;;17.47;95.13
13869;BME280;7004;48.206;16.402;2023-06-19T02:11:14;99544.31;;;17.69;93.06
13869;BME280;7004;48.206;16.402;2023-06-19T02:13:42;99548.72;;;17.98;91.14
13869;BME280;7004;48.206;16.402;2023-06-19T02:16:08;99540.94;;;18.04;90.52
13869;BME280;7004;48.206;16.402;2023-06-19T02:18:34;99540.41;;;18.01;90.88
13869;BME280;7004;48.206;16.402;2023-06-19T02:21:00;99540.09;;;18.04;91.15
13869;BME280;7004;48.206;16.402;2023-06-19T02:23:26;99547.16;;;17.67;92.66
13869;BME280;7004;48.206;16.402;2023-06-19T02:25:52;99549.25;;;17.64;93.12
13869;BME280;7004;48.206;16.402;2023-06-19T02:28:18;99546.34;;;17.57;93.18
13869;BME280;7004;48.206;16.402;2023-06-19T02:30:45;99545.38;;;17.96;91.04
13869;BME280;7004;48.206;16.402;2023-06-19T02:33:11;99544.41;;;17.87;91.10
13869;BME280;7004;48.206;16.402;2023-06-19T02:35:39;99547.28;;;18.03;90.70
13869;BME280;7004;48.206;16.402;2023-06-19T02:38:07;99545.16;;;18.07;90.44
13869;BME280;7004;48.206;16.402;2023-06-19T02:40:33;99544.03;;;17.72;92.42
13869;BME280;7004;48.206;16.402;2023-06-19T02:42:59;99545.16;;;17.32;94.23
13869;BME280;7004;48.206;16.402;2023-06-19T02:45:26;99546.34;;;17.57;93.76
13869;BME280;7004;48.206;16.402;2023-06-19T02:47:52;99541.28;;;17.92;91.91
13869;BME280;7004;48.206;16.402;2023-06-19T02:50:19;99542.47;;;18.07;90.69
13869;BME280;7004;48.206;16.402;2023-06-19T02:52:45;99538.97;;;17.69;92.56
13869;BME280;7004;48.206;16.402;2023-06-19T02:55:11;99542.44;;;17.42;93.50
13869;BME280;7004;48.206;16.402;2023-06-19T02:57:38;99541.53;;;17.14;95.71
13869;BME280;7004;48.206;16.402;2023-06-19T03:00:05;99541.94;;;17.19;94.93
13869;BME280;7004;48.206;16.402;2023-06-19T03:02:36;99541.22;;;17.36;94.46
13869;BME280;7004;48.206;16.402;2023-06-19T03:05:02;99536.59;;;17.66;92.62
13869;BME280;7004;48.206;16.402;2023-06-19T03:07:29;99544.56;;;17.76;91.56
13869;BME280;7004;48.206;16.402;2023-06-19T03:09:55;99548.88;;;17.96;90.96
13869;BME280;7004;48.206;16.402;2023-06-19T03:12:21;99546.81;;;18.08;90.20
13869;BME280;7004;48.206;16.402;2023-06-19T03:14:47;99544.84;;;18.10;90.68
13869;BME280;7004;48.206;16.402;2023-06-19T03:17:13;99549.34;;;17.82;92.49
13869;BME280;7004;48.206;16.402;2023-06-19T03:19:40;99552.00;;;17.44;94.09
13869;BME280;7004;48.206;16.402;2023-06-19T03:22:07;99556.00;;;17.68;93.32
13869;BME280;7004;48.206;16.402;2023-06-19T03:24:33;99559.63;;;17.77;92.58
13869;BME280;7004;48.206;16.402;2023-06-19T03:26:59;99556.34;;;17.45;93.62
13869;BME280;7004;48.206;16.402;2023-06-19T03:29:25;99552.47;;;17.30;94.66
13869;BME280;7004;48.206;16.402;2023-06-19T03:31:51;99558.66;;;17.31;94.83
13869;BME280;7004;48.206;16.402;2023-06-19T03:34:18;99557.28;;;17.17;96.30
13869;BME280;7004;48.206;16.402;2023-06-19T03:36:44;99563.03;;;17.22;96.04
13869;BME280;7004;48.206;16.402;2023-06-19T03:39:10;99565.78;;;17.50;93.99
13869;BME280;7004;48.206;16.402;2023-06-19T03:41:36;99560.25;;;17.61;93.64
13869;BME280;7004;48.206;16.402;2023-06-19T03:44:03;99563.69;;;17.90;92.20
13869;BME280;7004;48.206;16.402;2023-06-19T03:46:29;99558.81;;;18.04;91.50
13869;BME280;7004;48.206;16.402;2023-06-19T03:48:55;99562.19;;;17.68;93.69
13869;BME280;7004;48.206;16.402;2023-06-19T03:51:21;99560.94;;;17.63;95.10
13869;BME280;7004;48.206;16.402;2023-06-19T03:53:47;99556.44;;;17.63;95.50
13869;BME280;7004;48.206;16.402;2023-06-19T03:56:13;99555.09;;;17.87;93.77
13869;BME280;7004;48.206;16.402;2023-06-19T03:58:39;99552.28;;;17.79;93.85
13869;BME280;7004;48.206;16.402;2023-06-19T04:01:05;99557.38;;;17.82;94.96
13869;BME280;7004;48.206;16.402;2023-06-19T04:03:32;99559.09;;;17.63;96.43
13869;BME280;7004;48.206;16.402;2023-06-19T04:05:58;99559.59;;;17.86;95.42
13869;BME280;7004;48.206;16.402;2023-06-19T04:08:24;99562.75;;;17.72;96.86
13869;BME280;7004;48.206;16.402;2023-06-19T04:10:51;99567.94;;;17.74;97.63
13869;BME280;7004;48.206;16.402;2023-06-19T04:13:17;99569.38;;;17.68;98.83
13869;BME280;7004;48.206;16.402;2023-06-19T04:15:43;99568.19;;;17.90;98.13
13869;BME280;7004;48.206;16.402;2023-06-19T04:18:10;99564.00;;;18.05;97.13
13869;BME280;7004;48.206;16.402;2023-06-19T04:20:36;99569.41;;;18.23;96.45
13869;BME280;7004;48.206;16.402;2023-06-19T04:23:02;99579.31;;;18.13;97.10
13869;BME280;7004;48.206;16.402;2023-06-19T04:25:31;99563.38;;;18.39;95.73
13869;BME280;7004;48.206;16.402;2023-06-19T04:27:57;99563.69;;;18.36;96.37
13869;BME280;7004;48.206;16.402;2023-06-19T04:30:23;99568.69;;;18.67;94.84
13869;BME280;7004;48.206;16.402;2023-06-19T04:32:49;99580.56;;;18.82;93.48
13869;BME280;7004;48.206;16.402;2023-06-19T04:35:15;99580.25;;;19.03;93.14
13869;BME280;7004;48.206;16.402;2023-06-19T04:37:44;99586.50;;;19.12;93.55
13869;BME280;7004;48.206;16.402;2023-06-19T04:40:10;99587.66;;;19.09;93.27
13869;BME280;7004;48.206;16.402;2023-06-19T04:42:37;99593.66;;;19.29;89.19
13869;BME280;7004;48.206;16.402;2023-06-19T04:45:05;99597.00;;;19.49;90.63
13869;BME280;7004;48.206;16.402;2023-06-19T04:47:33;99598.09;;;19.64;90.92
13869;BME280;7004;48.206;16.402;2023-06-19T04:50:00;99598.25;;;19.63;90.26
13869;BME280;7004;48.206;16.402;2023-06-19T04:52:26;99601.41;;;19.84;87.44
13869;BME280;7004;48.206;16.402;2023-06-19T04:54:52;99605.38;;;19.72;85.70
13869;BME280;7004;48.206;16.402;2023-06-19T04:57:18;99608.28;;;19.87;83.98
13869;BME280;7004;48.206;16.402;2023-06-19T04:59:45;99606.63;;;19.86;85.11
13869;BME280;7004;48.206;16.402;2023-06-19T05:02:11;99601.69;;;20.07;84.27
13869;BME280;7004;48.206;16.402;2023-06-19T05:04:37;99609.09;;;20.14;85.73
13869;BME280;7004;48.206;16.402;2023-06-19T05:07:04;99612.66;;;20.22;83.46
13869;BME280;7004;48.206;16.402;2023-06-19T05:09:30;99608.31;;;20.29;81.37
13869;BME280;7004;48.206;16.402;2023-06-19T05:11:57;99605.66;;;20.38;80.28
13869;BME280;7004;48.206;16.402;2023-06-19T05:14:23;99603.22;;;20.61;80.25
13869;BME280;7004;48.206;16.402;2023-06-19T05:16:49;99605.09;;;20.77;81.58
13869;BME280;7004;48.206;16.402;2023-06-19T05:19:15;99604.56;;;20.65;81.46
13869;BME280;7004;48.206;16.402;2023-06-19T05:21:42;99597.53;;;20.72;81.08
13869;BME280;7004;48.206;16.402;2023-06-19T05:24:08;99599.06;;;20.83;78.84
13869;BME280;7004;48.206;16.402;2023-06-19T05:26:34;99601.59;;;20.84;80.63
13869;BME280;7004;48.206;16.402;2023-06-19T05:29:00;99605.44;;;20.65;80.80
13869;BME280;7004;48.206;16.402;2023-06-19T05:31:26;99606.47;;;21.13;76.42
13869;BME280;7004;48.206;16.402;2023-06-19T05:33:52;99605.44;;;20.90;76.31
13869;BME280;7004;48.206;16.402;2023-06-19T05:36:18;99612.81;;;20.88;70.87
13869;BME280;7004;48.206;16.402;2023-06-19T05:38:44;99605.97;;;21.18;71.31
13869;BME280;7004;48.206;16.402;2023-06-19T05:41:11;99603.09;;;21.69;69.89
13869;BME280;7004;48.206;16.402;2023-06-19T05:43:38;99610.16;;;21.37;70.29
13869;BME280;7004;48.206;16.402;2023-06-19T05:46:04;99610.19;;;21.53;70.21
13869;BME280;7004;48.206;16.402;2023-06-19T05:48:30;99615.38;;;21.55;70.91
13869;BME280;7004;48.206;16.402;2023-06-19T05:50:56;99612.97;;;21.76;67.96
13869;BME280;7004;48.206;16.402;2023-06-19T05:53:23;99617.28;;;21.94;68.47
13869;BME280;7004;48.206;16.402;2023-06-19T05:55:49;99617.13;;;21.95;66.51
13869;BME280;7004;48.206;16.402;2023-06-19T05:58:15;99617.00;;;21.80;67.27
13869;BME280;7004;48.206;16.402;2023-06-19T06:00:45;99613.69;;;22.57;65.71
13869;BME280;7004;48.206;16.402;2023-06-19T06:03:12;99609.56;;;22.38;66.42
13869;BME280;7004;48.206;16.402;2023-06-19T06:05:39;99610.38;;;22.47;66.53
13869;BME280;7004;48.206;16.402;2023-06-19T06:08:05;99613.13;;;22.39;66.44
13869;BME280;7004;48.206;16.402;2023-06-19T06:10:33;99615.44;;;22.73;66.78
13869;BME280;7004;48.206;16.402;2023-06-19T06:12:59;99615.50;;;22.57;65.66
13869;BME280;7004;48.206;16.402;2023-06-19T06:15:25;99613.53;;;23.05;65.02
13869;BME280;7004;48.206;16.402;2023-06-19T06:17:51;99617.59;;;22.46;65.21
13869;BME280;7004;48.206;16.402;2023-06-19T06:20:17;99620.50;;;22.99;63.86
13869;BME280;7004;48.206;16.402;2023-06-19T06:22:52;99616.31;;;22.65;65.70
13869;BME280;7004;48.206;16.402;2023-06-19T06:25:18;99623.78;;;23.47;62.38
13869;BME280;7004;48.206;16.402;2023-06-19T06:27:45;99630.19;;;23.08;63.75
13869;BME280;7004;48.206;16.402;2023-06-19T06:30:12;99631.75;;;23.03;61.69
13869;BME280;7004;48.206;16.402;2023-06-19T06:32:38;99631.00;;;23.32;59.13
13869;BME280;7004;48.206;16.402;2023-06-19T06:35:05;99636.34;;;23.55;58.36
13869;BME280;7004;48.206;16.402;2023-06-19T06:37:32;99637.72;;;23.89;58.55
13869;BME280;7004;48.206;16.402;2023-06-19T06:39:58;99648.66;;;24.10;58.98
13869;BME280;7004;48.206;16.402;2023-06-19T06:42:24;99642.41;;;23.95;55.16
13869;BME280;7004;48.206;16.402;2023-06-19T06:44:50;99642.84;;;23.98;54.30
13869;BME280;7004;48.206;16.402;2023-06-19T06:47:16;99637.19;;;24.23;53.48
13869;BME280;7004;48.206;16.402;2023-06-19T06:49:42;99633.69;;;24.59;53.22
13869;BME280;7004;48.206;16.402;2023-06-19T06:52:08;99633.69;;;25.17;52.52
13869;BME280;7004;48.206;16.402;2023-06-19T06:54:34;99641.31;;;24.70;52.88
13869;BME280;7004;48.206;16.402;2023-06-19T06:57:00;99630.50;;;25.13;52.41
13869;BME280;7004;48.206;16.402;2023-06-19T06:59:27;99642.16;;;25.14;50.40
13869;BME280;7004;48.206;16.402;2023-06-19T07:01:55;99638.91;;;25.40;50.78
13869;BME280;7004;48.206;16.402;2023-06-19T07:04:22;99629.00;;;25.54;50.40
13869;BME280;7004;48.206;16.402;2023-06-19T07:06:48;99627.94;;;25.48;49.58
13869;BME280;7004;48.206;16.402;2023-06-19T07:09:15;99632.66;;;25.18;49.31
13869;BME280;7004;48.206;16.402;2023-06-19T07:11:41;99633.78;;;25.80;48.71
13869;BME280;7004;48.206;16.402;2023-06-19T07:14:07;99634.00;;;26.13;48.51
13869;BME280;7004;48.206;16.402;2023-06-19T07:16:33;99640.06;;;26.56;48.07
13869;BME280;7004;48.206;16.402;2023-06-19T07:18:59;99637.66;;;26.40;49.19
13869;BME280;7004;48.206;16.402;2023-06-19T07:21:28;99629.25;;;26.70;49.61
13869;BME280;7004;48.206;16.402;2023-06-19T07:23:56;99627.22;;;27.05;47.53
13869;BME280;7004;48.206;16.402;2023-06-19T07:26:23;99640.78;;;26.98;47.31
13869;BME280;7004;48.206;16.402;2023-06-19T07:28:49;99633.38;;;26.59;47.43
13869;BME280;7004;48.206;16.402;2023-06-19T07:31:15;99627.03;;;27.13;47.03
13869;BME280;7004;48.206;16.402;2023-06-19T07:33:41;99628.94;;;27.39;46.65
13869;BME280;7004;48.206;16.402;2023-06-19T07:36:07;99631.66;;;27.33;48.28
13869;BME280;7004;48.206;16.402;2023-06-19T07:38:34;99633.75;;;27.37;47.01
13869;BME280;7004;48.206;16.402;2023-06-19T07:41:00;99631.66;;;27.33;45.80
13869;BME280;7004;48.206;16.402;2023-06-19T07:43:26;99631.63;;;27.73;45.41
13869;BME280;7004;48.206;16.402;2023-06-19T07:45:52;99627.84;;;28.00;45.08
13869;BME280;7004;48.206;16.402;2023-06-19T07:48:18;99639.38;;;27.69;46.15
13869;BME280;7004;48.206;16.402;2023-06-19T07:50:44;99639.47;;;28.27;43.08
13869;BME280;7004;48.206;16.402;2023-06-19T07:53:11;99636.44;;;27.77;44.82
13869;BME280;7004;48.206;16.402;2023-06-19T07:55:37;99629.38;;;28.41;44.28
13869;BME280;7004;48.206;16.402;2023-06-19T07:58:03;99638.13;;;27.58;43.99
13869;BME280;7004;48.206;16.402;2023-06-19T08:00:29;99635.66;;;28.42;43.74
13869;BME280;7004;48.206;16.402;2023-06-19T08:02:56;99634.56;;;27.91;43.71
13869;BME280;7004;48.206;16.402;2023-06-19T08:05:22;99635.81;;;28.02;45.00
13869;BME280;7004;48.206;16.402;2023-06-19T08:07:48;99639.78;;;27.79;44.44
13869;BME280;7004;48.206;16.402;2023-06-19T08:10:14;99638.53;;;28.02;45.11
13869;BME280;7004;48.206;16.402;2023-06-19T08:12:43;99640.00;;;27.71;42.78
13869;BME280;7004;48.206;16.402;2023-06-19T08:15:11;99642.22;;;28.72;42.99
13869;BME280;7004;48.206;16.402;2023-06-19T08:17:37;99642.50;;;28.96;42.91
13869;BME280;7004;48.206;16.402;2023-06-19T08:20:03;99642.31;;;27.94;42.99
13869;BME280;7004;48.206;16.402;2023-06-19T08:22:31;99636.84;;;28.97;42.32
13869;BME280;7004;48.206;16.402;2023-06-19T08:24:57;99626.84;;;29.48;41.52
13869;BME280;7004;48.206;16.402;2023-06-19T08:27:23;99635.88;;;28.85;42.25
13869;BME280;7004;48.206;16.402;2023-06-19T08:29:49;99632.59;;;29.65;41.42
13869;BME280;7004;48.206;16.402;2023-06-19T08:32:16;99621.78;;;29.77;41.78
13869;BME280;7004;48.206;16.402;2023-06-19T08:34:42;99627.25;;;29.27;40.09
13869;BME280;7004;48.206;16.402;2023-06-19T08:37:08;99633.78;;;28.49;40.49
13869;BME280;7004;48.206;16.402;2023-06-19T08:39:34;99630.03;;;29.70;39.18
13869;BME280;7004;48.206;16.402;2023-06-19T08:42:08;99635.38;;;30.02;40.68
13869;BME280;7004;48.206;16.402;2023-06-19T08:44:37;99647.88;;;29.66;40.51
13869;BME280;7004;48.206;16.402;2023-06-19T08:47:04;99655.97;;;29.73;38.55
13869;BME280;7004;48.206;16.402;2023-06-19T08:49:33;99648.13;;;29.58;38.53
13869;BME280;7004;48.206;16.402;2023-06-19T08:52:03;99646.06;;;29.28;38.83
13869;BME280;7004;48.206;16.402;2023-06-19T08:54:29;99638.78;;;30.16;38.43
13869;BME280;7004;48.206;16.402;2023-06-19T08:56:56;99645.69;;;29.75;38.94
13869;BME280;7004;48.206;16.402;2023-06-19T08:59:26;99643.16;;;30.35;39.31
13869;BME280;7004;48.206;16.402;2023-06-19T09:01:54;99647.06;;;29.59;40.40
13869;BME280;7004;48.206;16.402;2023-06-19T09:04:25;99652.72;;;29.07;38.11
13869;BME280;7004;48.206;16.402;2023-06-19T09:07:00;99657.38;;;28.93;36.49
13869;BME280;7004;48.206;16.402;2023-06-19T09:09:27;99654.88;;;29.24;36.55
13869;BME280;7004;48.206;16.402;2023-06-19T09:12:07;99648.72;;;30.77;35.66
13869;BME280;7004;48.206;16.402;2023-06-19T09:17:07;99654.00;;;30.42;39.57
13869;BME280;7004;48.206;16.402;2023-06-19T09:19:36;99651.56;;;30.15;40.27
13869;BME280;7004;48.206;16.402;2023-06-19T09:22:06;99645.38;;;30.94;39.53
13869;BME280;7004;48.206;16.402;2023-06-19T09:24:40;99649.88;;;30.14;39.87
13869;BME280;7004;48.206;16.402;2023-06-19T09:27:10;99648.34;;;29.56;37.51
13869;BME280;7004;48.206;16.402;2023-06-19T09:29:45;99652.63;;;30.14;39.58
13869;BME280;7004;48.206;16.402;2023-06-19T09:32:16;99649.44;;;29.99;40.13
13869;BME280;7004;48.206;16.402;2023-06-19T09:34:42;99645.66;;;29.81;39.65
13869;BME280;7004;48.206;16.402;2023-06-19T09:37:09;99641.44;;;30.22;40.42
13869;BME280;7004;48.206;16.402;2023-06-19T09:39:39;99643.22;;;29.73;39.01
13869;BME280;7004;48.206;16.402;2023-06-19T09:42:09;99638.00;;;30.45;39.07
13869;BME280;7004;48.206;16.402;2023-06-19T09:44:41;99637.78;;;31.49;38.98
13869;BME280;7004;48.206;16.402;2023-06-19T09:47:21;99642.69;;;31.47;40.21
13869;BME280;7004;48.206;16.402;2023-06-19T09:49:54;99639.94;;;31.83;39.05
13869;BME280;7004;48.206;16.402;2023-06-19T09:52:22;99651.97;;;31.16;39.67
13869;BME280;7004;48.206;16.402;2023-06-19T09:54:54;99650.47;;;31.32;39.87
13869;BME280;7004;48.206;16.402;2023-06-19T09:57:21;99652.19;;;31.03;40.37
13869;BME280;7004;48.206;16.402;2023-06-19T09:59:56;99653.94;;;30.79;39.92
13869;BME280;7004;48.206;16.402;2023-06-19T10:02:25;99653.97;;;30.30;41.15
13869;BME280;7004;48.206;16.402;2023-06-19T10:04:55;99650.03;;;31.82;38.29
13869;BME280;7004;48.206;16.402;2023-06-19T10:07:26;99646.84;;;31.97;36.72
13869;BME280;7004;48.206;16.402;2023-06-19T10:10:10;99646.84;;;31.50;38.15
13869;BME280;7004;48.206;16.402;2023-06-19T10:12:43;99648.25;;;30.99;37.45
13869;BME280;7004;48.206;16.402;2023-06-19T10:15:20;99641.13;;;31.51;36.72
13869;BME280;7004;48.206;16.402;2023-06-19T10:17:59;99645.16;;;30.95;37.97
13869;BME280;7004;48.206;16.402;2023-06-19T10:20:36;99639.56;;;30.41;38.66
13869;BME280;7004;48.206;16.402;2023-06-19T10:23:16;99627.25;;;31.53;39.24
13869;BME280;7004;48.206;16.402;2023-06-19T10:25:57;99627.81;;;31.43;37.50
13869;BME280;7004;48.206;16.402;2023-06-19T10:28:28;99630.91;;;32.06;37.60
13869;BME280;7004;48.206;16.402;2023-06-19T10:30:56;99624.78;;;32.79;36.46
13869;BME280;7004;48.206;16.402;2023-06-19T10:33:27;99626.03;;;30.65;38.86
13869;BME280;7004;48.206;16.402;2023-06-19T10:35:53;99627.84;;;31.55;37.42
13869;BME280;7004;48.206;16.402;2023-06-19T10:38:20;99627.13;;;31.06;37.72
13869;BME280;7004;48.206;16.402;2023-06-19T10:40:46;99630.13;;;32.34;37.68
13869;BME280;7004;48.206;16.402;2023-06-19T10:43:22;99628.91;;;31.00;37.08
13869;BME280;7004;48.206;16.402;2023-06-19T10:45:54;99637.19;;;30.94;37.61
13869;BME280;7004;48.206;16.402;2023-06-19T10:48:23;99621.91;;;31.58;36.55
13869;BME280;7004;48.206;16.402;2023-06-19T10:50:51;99630.47;;;32.49;37.61
13869;BME280;7004;48.206;16.402;2023-06-19T10:53:30;99633.25;;;31.31;37.08
13869;BME280;7004;48.206;16.402;2023-06-19T10:55:58;99640.59;;;30.89;36.14
13869;BME280;7004;48.206;16.402;2023-06-19T10:59:15;99635.16;;;32.25;36.20
13869;BME280;7004;48.206;16.402;2023-06-19T11:01:46;99631.38;;;32.14;36.42
13869;BME280;7004;48.206;16.402;2023-06-19T11:04:15;99629.69;;;32.13;36.65
13869;BME280;7004;48.206;16.402;2023-06-19T11:06:43;99626.59;;;30.85;36.58
13869;BME280;7004;48.206;16.402;2023-06-19T11:09:13;99620.22;;;31.57;35.21
13869;BME280;7004;48.206;16.402;2023-06-19T11:11:47;99626.88;;;31.61;34.80
13869;BME280;7004;48.206;16.402;2023-06-19T11:14:15;99626.78;;;30.72;33.73
13869;BME280;7004;48.206;16.402;2023-06-19T11:16:47;99619.38;;;30.42;34.29
13869;BME280;7004;48.206;16.402;2023-06-19T11:19:19;99619.03;;;31.41;34.28
13869;BME280;7004;48.206;16.402;2023-06-19T11:21:51;99611.75;;;30.51;35.78
13869;BME280;7004;48.206;16.402;2023-06-19T11:24:19;99612.19;;;31.20;35.44
13869;BME280;7004;48.206;16.402;2023-06-19T11:26:48;99606.19;;;31.77;33.80
13869;BME280;7004;48.206;16.402;2023-06-19T11:29:22;99606.06;;;31.37;35.32
13869;BME280;7004;48.206;16.402;2023-06-19T11:31:49;99614.28;;;32.48;34.89
13869;BME280;7004;48.206;16.402;2023-06-19T11:34:17;99605.72;;;32.56;32.79
13869;BME280;7004;48.206;16.402;2023-06-19T11:36:43;99617.72;;;32.55;34.02
13869;BME280;7004;48.206;16.402;2023-06-19T11:39:11;99609.38;;;31.27;34.82
13869;BME280;7004;48.206;16.402;2023-06-19T11:41:40;99613.38;;;31.12;35.29
13869;BME280;7004;48.206;16.402;2023-06-19T11:44:08;99609.19;;;31.64;33.92
13869;BME280;7004;48.206;16.402;2023-06-19T11:46:37;99615.88;;;32.32;35.00
13869;BME280;7004;48.206;16.402;2023-06-19T11:49:16;99604.28;;;32.82;31.40
13869;BME280;7004;48.206;16.402;2023-06-19T11:51:47;99605.41;;;32.69;30.16
13869;BME280;7004;48.206;16.402;2023-06-19T11:54:14;99607.59;;;32.55;31.97
13869;BME280;7004;48.206;16.402;2023-06-19T11:56:41;99604.59;;;32.28;31.69
13869;BME280;7004;48.206;16.402;2023-06-19T11:59:07;99604.53;;;32.40;35.41
13869;BME280;7004;48.206;16.402;2023-06-19T12:01:36;99600.38;;;32.49;32.60
13869;BME280;7004;48.206;16.402;2023-06-19T12:04:03;99600.69;;;32.81;33.19
13869;BME280;7004;48.206;16.402;2023-06-19T12:06:30;99596.53;;;32.79;30.80
13869;BME280;7004;48.206;16.402;2023-06-19T12:08:57;99595.81;;;32.83;30.91
13869;BME280;7004;48.206;16.402;2023-06-19T12:11:23;99593.78;;;33.07;32.11
13869;BME280;7004;48.206;16.402;2023-06-19T12:13:50;99590.59;;;33.11;31.29
13869;BME280;7004;48.206;16.402;2023-06-19T12:16:19;99590.03;;;32.39;29.16
13869;BME280;7004;48.206;16.402;2023-06-19T12:18:45;99586.56;;;32.44;28.73
13869;BME280;7004;48.206;16.402;2023-06-19T12:21:11;99589.09;;;32.34;28.54
13869;BME280;7004;48.206;16.402;2023-06-19T12:23:37;99583.34;;;32.47;27.25
13869;BME280;7004;48.206;16.402;2023-06-19T12:26:03;99580.63;;;32.76;26.29
13869;BME280;7004;48.206;16.402;2023-06-19T12:28:29;99582.41;;;32.82;25.50
13869;BME280;7004;48.206;16.402;2023-06-19T12:30:55;99581.22;;;31.85;27.97
13869;BME280;7004;48.206;16.402;2023-06-19T12:33:22;99586.91;;;33.22;27.89
13869;BME280;7004;48.206;16.402;2023-06-19T12:35:48;99576.56;;;32.78;27.43
13869;BME280;7004;48.206;16.402;2023-06-19T12:38:15;99568.91;;;32.63;30.00
13869;BME280;7004;48.206;16.402;2023-06-19T12:40:41;99570.94;;;32.85;28.78
13869;BME280;7004;48.206;16.402;2023-06-19T12:43:07;99565.16;;;33.15;29.94
13869;BME280;7004;48.206;16.402;2023-06-19T12:45:34;99568.25;;;32.45;30.57
13869;BME280;7004;48.206;16.402;2023-06-19T12:48:00;99575.34;;;32.86;28.36
13869;BME280;7004;48.206;16.402;2023-06-19T12:50:26;99568.91;;;31.71;28.49
13869;BME280;7004;48.206;16.402;2023-06-19T12:52:52;99579.34;;;32.09;29.74
13869;BME280;7004;48.206;16.402;2023-06-19T12:55:18;99570.06;;;32.10;28.11
13869;BME280;7004;48.206;16.402;2023-06-19T12:57:44;99570.34;;;33.28;27.65
13869;BME280;7004;48.206;16.402;2023-06-19T13:00:12;99577.94;;;31.71;26.47
13869;BME280;7004;48.206;16.402;2023-06-19T13:02:39;99570.56;;;33.10;25.71
13869;BME280;7004;48.206;16.402;2023-06-19T13:05:10;99566.88;;;31.54;26.54